LOG901 EGPD-EGPB
Flight info
| Callsign | LOG901 |
|---|---|
| Flight time | 0h 44m |
| Altitude | 13000 |
| Route | ADN Y905 WAFIL |
| Aircraft | AT76/M-SDFGIRY/S |
Departure
| Time | 2026-04-30 20:00 |
|---|---|
| Airport | Aberdeen International Airport (EGPD) |
Arrival
| Time | 2026-04-30 20:44 |
|---|---|
| Airport | Sumburgh Airport (EGPB) |
| Time | Latitude | Longitude | Altitude | Speed | Heading |
|---|---|---|---|---|---|
| 2026-04-30 19:44 | 57.20207 | -2.20472 | 244 ft | 0 kts | 135° |
| 2026-04-30 19:53 | 57.20221 | -2.20502 | 244 ft | 4 kts | 121° |
| 2026-04-30 19:54 | 57.20229 | -2.20544 | 244 ft | 4 kts | 75° |
| 2026-04-30 19:54 | 57.20223 | -2.20568 | 244 ft | 1 kts | 46° |
| 2026-04-30 19:54 | 57.20221 | -2.20571 | 244 ft | 0 kts | 46° |
| 2026-04-30 19:56 | 57.20246 | -2.20523 | 244 ft | 14 kts | 46° |
| 2026-04-30 19:56 | 57.20316 | -2.20380 | 244 ft | 15 kts | 56° |
| 2026-04-30 19:57 | 57.20371 | -2.20219 | 244 ft | 14 kts | 73° |
| 2026-04-30 19:57 | 57.20344 | -2.20118 | 244 ft | 7 kts | 140° |
| 2026-04-30 19:57 | 57.20266 | -2.20004 | 244 ft | 13 kts | 142° |
| 2026-04-30 19:57 | 57.20200 | -2.19909 | 244 ft | 14 kts | 141° |
| 2026-04-30 19:58 | 57.20117 | -2.19780 | 245 ft | 17 kts | 141° |
| 2026-04-30 19:58 | 57.20121 | -2.19726 | 245 ft | 3 kts | 2° |
| 2026-04-30 19:58 | 57.20126 | -2.19730 | 245 ft | 0 kts | 334° |
| 2026-04-30 19:59 | 57.20127 | -2.19731 | 245 ft | 0 kts | 334° |
| 2026-04-30 19:59 | 57.20273 | -2.19839 | 244 ft | 52 kts | 338° |
| 2026-04-30 19:59 | 57.21607 | -2.20879 | 471 ft | 130 kts | 331° |
| 2026-04-30 20:00 | 57.22442 | -2.21708 | 845 ft | 142 kts | 329° |
| 2026-04-30 20:00 | 57.23273 | -2.22897 | 1106 ft | 159 kts | 301° |
| 2026-04-30 20:00 | 57.23738 | -2.24735 | 1399 ft | 157 kts | 266° |
| 2026-04-30 20:00 | 57.23917 | -2.26720 | 1758 ft | 170 kts | 288° |
| 2026-04-30 20:01 | 57.25892 | -2.29632 | 2468 ft | 186 kts | 327° |
| 2026-04-30 20:01 | 57.27172 | -2.29954 | 2786 ft | 191 kts | 17° |
| 2026-04-30 20:01 | 57.28226 | -2.28676 | 3135 ft | 178 kts | 59° |
| 2026-04-30 20:02 | 57.29786 | -2.24865 | 3588 ft | 199 kts | 59° |
| 2026-04-30 20:02 | 57.30697 | -2.22863 | 3854 ft | 208 kts | 54° |
| 2026-04-30 20:03 | 57.32831 | -2.19136 | 4614 ft | 207 kts | 46° |
| 2026-04-30 20:03 | 57.33921 | -2.17440 | 5039 ft | 204 kts | 45° |
| 2026-04-30 20:03 | 57.35014 | -2.15756 | 5385 ft | 206 kts | 45° |
| 2026-04-30 20:03 | 57.36113 | -2.14033 | 5718 ft | 207 kts | 46° |
| 2026-04-30 20:04 | 57.36835 | -2.12876 | 5917 ft | 209 kts | 46° |
| 2026-04-30 20:04 | 57.37930 | -2.11104 | 6255 ft | 209 kts | 46° |
| 2026-04-30 20:04 | 57.39023 | -2.09331 | 6583 ft | 211 kts | 45° |
| 2026-04-30 20:05 | 57.41618 | -2.05119 | 7296 ft | 214 kts | 45° |
| 2026-04-30 20:05 | 57.42741 | -2.03290 | 7600 ft | 216 kts | 46° |
| 2026-04-30 20:05 | 57.44638 | -2.00197 | 8100 ft | 218 kts | 45° |
| 2026-04-30 20:06 | 57.45783 | -1.98333 | 8403 ft | 219 kts | 45° |
| 2026-04-30 20:06 | 57.46930 | -1.96458 | 8683 ft | 221 kts | 45° |
| 2026-04-30 20:06 | 57.48090 | -1.94567 | 8956 ft | 222 kts | 45° |
| 2026-04-30 20:06 | 57.49254 | -1.92661 | 9237 ft | 224 kts | 45° |
| 2026-04-30 20:07 | 57.50410 | -1.90773 | 9514 ft | 225 kts | 45° |
| 2026-04-30 20:07 | 57.51587 | -1.88844 | 9793 ft | 226 kts | 45° |
| 2026-04-30 20:07 | 57.53958 | -1.84958 | 10325 ft | 229 kts | 45° |
| 2026-04-30 20:08 | 57.55154 | -1.82992 | 10571 ft | 230 kts | 45° |
| 2026-04-30 20:08 | 57.56544 | -1.81529 | 10781 ft | 233 kts | 15° |
| 2026-04-30 20:08 | 57.58135 | -1.80967 | 10996 ft | 233 kts | 5° |
| 2026-04-30 20:08 | 57.59758 | -1.80688 | 11223 ft | 234 kts | 2° |
| 2026-04-30 20:09 | 57.61393 | -1.80452 | 11394 ft | 238 kts | 3° |
| 2026-04-30 20:09 | 57.63051 | -1.80203 | 11631 ft | 239 kts | 4° |
| 2026-04-30 20:09 | 57.66345 | -1.79557 | 12192 ft | 237 kts | 4° |
| 2026-04-30 20:10 | 57.69632 | -1.78860 | 12671 ft | 239 kts | 4° |
| 2026-04-30 20:10 | 57.71287 | -1.78503 | 12903 ft | 240 kts | 4° |
| 2026-04-30 20:10 | 57.72948 | -1.78147 | 13106 ft | 242 kts | 4° |
| 2026-04-30 20:11 | 57.76403 | -1.77398 | 13235 ft | 258 kts | 4° |
| 2026-04-30 20:11 | 57.78221 | -1.77001 | 13254 ft | 266 kts | 5° |
| 2026-04-30 20:11 | 57.80085 | -1.76594 | 13261 ft | 273 kts | 5° |
| 2026-04-30 20:12 | 57.83937 | -1.75758 | 13263 ft | 283 kts | 5° |
| 2026-04-30 20:12 | 57.85911 | -1.75331 | 13264 ft | 287 kts | 5° |
| 2026-04-30 20:12 | 57.87900 | -1.74900 | 13272 ft | 289 kts | 5° |
| 2026-04-30 20:13 | 57.89882 | -1.74463 | 13270 ft | 291 kts | 5° |
| 2026-04-30 20:13 | 57.91905 | -1.74019 | 13290 ft | 293 kts | 5° |
| 2026-04-30 20:13 | 57.93939 | -1.73580 | 13276 ft | 295 kts | 5° |
| 2026-04-30 20:13 | 57.95984 | -1.73130 | 13271 ft | 297 kts | 5° |
| 2026-04-30 20:14 | 57.98043 | -1.72679 | 13271 ft | 298 kts | 5° |
| 2026-04-30 20:14 | 58.00108 | -1.72230 | 13270 ft | 299 kts | 5° |
| 2026-04-30 20:14 | 58.02179 | -1.71776 | 13270 ft | 300 kts | 5° |
| 2026-04-30 20:14 | 58.04254 | -1.71321 | 13275 ft | 300 kts | 5° |
| 2026-04-30 20:15 | 58.06332 | -1.70864 | 13275 ft | 301 kts | 5° |
| 2026-04-30 20:15 | 58.08409 | -1.70407 | 13274 ft | 301 kts | 5° |
| 2026-04-30 20:15 | 58.10491 | -1.69949 | 13276 ft | 301 kts | 5° |
| 2026-04-30 20:15 | 58.12570 | -1.69490 | 13276 ft | 301 kts | 5° |
| 2026-04-30 20:16 | 58.14655 | -1.69027 | 13276 ft | 301 kts | 5° |
| 2026-04-30 20:16 | 58.16738 | -1.68567 | 13275 ft | 302 kts | 5° |
| 2026-04-30 20:16 | 58.18819 | -1.68106 | 13275 ft | 301 kts | 5° |
| 2026-04-30 20:16 | 58.20902 | -1.67641 | 13285 ft | 302 kts | 5° |
| 2026-04-30 20:17 | 58.22990 | -1.67183 | 13280 ft | 302 kts | 5° |
| 2026-04-30 20:17 | 58.25080 | -1.66720 | 13275 ft | 302 kts | 5° |
| 2026-04-30 20:17 | 58.27167 | -1.66251 | 13274 ft | 302 kts | 5° |
| 2026-04-30 20:17 | 58.29257 | -1.65787 | 13276 ft | 303 kts | 5° |
| 2026-04-30 20:18 | 58.31349 | -1.65324 | 13274 ft | 303 kts | 5° |
| 2026-04-30 20:18 | 58.33437 | -1.64862 | 13274 ft | 303 kts | 5° |
| 2026-04-30 20:18 | 58.35535 | -1.64395 | 13274 ft | 303 kts | 5° |
| 2026-04-30 20:18 | 58.37624 | -1.63929 | 13271 ft | 303 kts | 5° |
| 2026-04-30 20:19 | 58.39717 | -1.63454 | 13270 ft | 303 kts | 5° |
| 2026-04-30 20:19 | 58.41811 | -1.62980 | 13269 ft | 303 kts | 5° |
| 2026-04-30 20:19 | 58.43904 | -1.62509 | 13270 ft | 303 kts | 5° |
| 2026-04-30 20:19 | 58.45991 | -1.62042 | 13272 ft | 303 kts | 5° |
| 2026-04-30 20:20 | 58.48084 | -1.61566 | 13268 ft | 303 kts | 5° |
| 2026-04-30 20:20 | 58.50178 | -1.61095 | 13266 ft | 303 kts | 4° |
| 2026-04-30 20:20 | 58.52268 | -1.60629 | 13267 ft | 303 kts | 4° |
| 2026-04-30 20:20 | 58.54365 | -1.60154 | 13267 ft | 303 kts | 4° |
| 2026-04-30 20:21 | 58.56459 | -1.59681 | 13266 ft | 303 kts | 4° |
| 2026-04-30 20:21 | 58.58525 | -1.59217 | 13262 ft | 303 kts | 4° |
| 2026-04-30 20:21 | 58.60614 | -1.58742 | 13263 ft | 303 kts | 4° |
| 2026-04-30 20:21 | 58.62707 | -1.58268 | 13266 ft | 303 kts | 4° |
| 2026-04-30 20:22 | 58.64801 | -1.57794 | 13265 ft | 303 kts | 4° |
| 2026-04-30 20:22 | 58.66894 | -1.57312 | 13265 ft | 303 kts | 4° |
| 2026-04-30 20:22 | 58.68961 | -1.56840 | 13266 ft | 303 kts | 4° |
| 2026-04-30 20:22 | 58.71053 | -1.56367 | 13258 ft | 303 kts | 4° |
| 2026-04-30 20:23 | 58.73144 | -1.55890 | 13259 ft | 303 kts | 5° |
| 2026-04-30 20:23 | 58.75234 | -1.55409 | 13258 ft | 303 kts | 4° |
| 2026-04-30 20:23 | 58.77325 | -1.54930 | 13259 ft | 302 kts | 4° |
| 2026-04-30 20:23 | 58.79412 | -1.54455 | 13259 ft | 302 kts | 4° |
| 2026-04-30 20:24 | 58.81502 | -1.53976 | 13258 ft | 302 kts | 5° |
| 2026-04-30 20:24 | 58.83592 | -1.53497 | 13257 ft | 302 kts | 4° |
| 2026-04-30 20:24 | 58.85682 | -1.53023 | 13258 ft | 302 kts | 4° |
| 2026-04-30 20:24 | 58.87773 | -1.52540 | 13258 ft | 303 kts | 4° |
| 2026-04-30 20:25 | 58.91952 | -1.51565 | 13265 ft | 303 kts | 4° |
| 2026-04-30 20:25 | 58.94042 | -1.51083 | 13266 ft | 302 kts | 4° |
| 2026-04-30 20:26 | 58.98225 | -1.50112 | 13264 ft | 303 kts | 4° |
| 2026-04-30 20:26 | 59.02402 | -1.49141 | 13274 ft | 303 kts | 4° |
| 2026-04-30 20:26 | 59.04496 | -1.48633 | 13267 ft | 303 kts | 4° |
| 2026-04-30 20:27 | 59.08679 | -1.47615 | 13264 ft | 303 kts | 4° |
| 2026-04-30 20:27 | 59.12869 | -1.46645 | 13264 ft | 303 kts | 4° |
| 2026-04-30 20:28 | 59.17057 | -1.45673 | 13261 ft | 303 kts | 4° |
| 2026-04-30 20:28 | 59.21241 | -1.44687 | 13259 ft | 303 kts | 4° |
| 2026-04-30 20:29 | 59.25422 | -1.43699 | 13256 ft | 303 kts | 4° |
| 2026-04-30 20:30 | 59.31697 | -1.42219 | 13272 ft | 303 kts | 3° |
| 2026-04-30 20:30 | 59.37994 | -1.40736 | 13256 ft | 304 kts | 3° |
| 2026-04-30 20:31 | 59.44296 | -1.39232 | 13254 ft | 304 kts | 3° |
| 2026-04-30 20:32 | 59.50618 | -1.37724 | 13038 ft | 312 kts | 3° |
| 2026-04-30 20:32 | 59.55060 | -1.36651 | 12171 ft | 324 kts | 4° |
| 2026-04-30 20:33 | 59.57251 | -1.36104 | 11747 ft | 320 kts | 4° |
| 2026-04-30 20:33 | 59.61619 | -1.35045 | 10932 ft | 313 kts | 4° |
| 2026-04-30 20:33 | 59.63758 | -1.34538 | 10532 ft | 309 kts | 4° |
| 2026-04-30 20:34 | 59.67993 | -1.33528 | 9704 ft | 303 kts | 4° |
| 2026-04-30 20:34 | 59.72143 | -1.32514 | 8869 ft | 298 kts | 4° |
| 2026-04-30 20:35 | 59.74191 | -1.32014 | 8465 ft | 295 kts | 4° |
| 2026-04-30 20:35 | 59.76217 | -1.31519 | 8074 ft | 292 kts | 4° |
| 2026-04-30 20:35 | 59.80216 | -1.30540 | 7281 ft | 288 kts | 4° |
| 2026-04-30 20:36 | 59.82193 | -1.30058 | 6910 ft | 285 kts | 4° |
| 2026-04-30 20:36 | 59.84154 | -1.29577 | 6540 ft | 283 kts | 4° |
| 2026-04-30 20:36 | 59.87851 | -1.30393 | 5726 ft | 258 kts | 320° |
| 2026-04-30 20:37 | 59.88902 | -1.32894 | 5447 ft | 218 kts | 284° |
| 2026-04-30 20:37 | 59.88949 | -1.35631 | 5180 ft | 188 kts | 247° |
| 2026-04-30 20:37 | 59.88507 | -1.37888 | 4942 ft | 165 kts | 242° |
| 2026-04-30 20:37 | 59.88072 | -1.39913 | 4703 ft | 158 kts | 243° |
| 2026-04-30 20:38 | 59.87730 | -1.42060 | 4489 ft | 169 kts | 255° |
| 2026-04-30 20:38 | 59.87361 | -1.44193 | 4292 ft | 160 kts | 232° |
| 2026-04-30 20:38 | 59.86725 | -1.46013 | 4089 ft | 160 kts | 231° |
| 2026-04-30 20:39 | 59.85409 | -1.49629 | 3689 ft | 161 kts | 230° |
| 2026-04-30 20:39 | 59.84763 | -1.51384 | 3636 ft | 152 kts | 230° |
| 2026-04-30 20:39 | 59.84222 | -1.53138 | 3641 ft | 150 kts | 249° |
| 2026-04-30 20:40 | 59.84618 | -1.57517 | 3015 ft | 163 kts | 274° |
| 2026-04-30 20:40 | 59.84920 | -1.59633 | 2695 ft | 158 kts | 285° |
| 2026-04-30 20:40 | 59.85827 | -1.61036 | 2551 ft | 180 kts | 338° |
| 2026-04-30 20:41 | 59.87876 | -1.58956 | 2467 ft | 169 kts | 78° |
| 2026-04-30 20:41 | 59.88072 | -1.56736 | 2465 ft | 166 kts | 91° |
| 2026-04-30 20:41 | 59.88141 | -1.54430 | 2460 ft | 168 kts | 102° |
| 2026-04-30 20:41 | 59.88074 | -1.52073 | 2427 ft | 175 kts | 104° |
| 2026-04-30 20:42 | 59.87998 | -1.49619 | 2280 ft | 180 kts | 103° |
| 2026-04-30 20:42 | 59.87950 | -1.47198 | 2085 ft | 175 kts | 102° |
| 2026-04-30 20:42 | 59.87935 | -1.42302 | 1564 ft | 176 kts | 99° |
| 2026-04-30 20:43 | 59.87965 | -1.39943 | 1241 ft | 166 kts | 99° |
| 2026-04-30 20:43 | 59.87996 | -1.37678 | 944 ft | 160 kts | 97° |
| 2026-04-30 20:43 | 59.87974 | -1.35552 | 661 ft | 148 kts | 101° |
| 2026-04-30 20:44 | 59.88031 | -1.31675 | 195 ft | 134 kts | 90° |
| 2026-04-30 20:44 | 59.88104 | -1.29959 | 43 ft | 113 kts | 84° |
| 2026-04-30 20:44 | 59.88140 | -1.29198 | 42 ft | 9 kts | 146° |
| 2026-04-30 20:45 | 59.88012 | -1.29332 | 40 ft | 4 kts | 214° |
| 2026-04-30 20:45 | 59.87979 | -1.29352 | 40 ft | 6 kts | 157° |
| 2026-04-30 20:45 | 59.87961 | -1.29308 | 40 ft | 0 kts | 116° |